Time;durP1;ratioP1;P1;durP2;ratioP2;P2;SDS_P1;SDS_P2;PMS_P1;PMS_P2;Temp;Humidity;BMP_temperature;BMP_pressure;BME280_temperature;BME280_humidity;BME280_pressure;Samples;Min_cycle;Max_cycle;Signal;HPM_P1;HPM_P2
2021/08/19 00:01:55;;;;;;;2.47;1.70;;;;;;;-139.48;100.00;61774.03;5096541;28;20135;-64
2021/08/19 00:04:40;;;;;;;3.08;1.67;;;;;;;-139.48;100.00;61774.03;5096415;28;20214;-64
2021/08/19 00:07:25;;;;;;;2.80;1.90;;;;;;;-139.48;100.00;61774.03;5095502;28;20097;-64
2021/08/19 00:10:10;;;;;;;5.05;1.90;;;;;;;-139.48;100.00;61774.03;5095843;28;20042;-63
2021/08/19 00:12:54;;;;;;;4.43;2.15;;;;;;;-139.48;100.00;61774.03;5095775;28;20519;-64
2021/08/19 00:15:38;;;;;;;3.42;2.03;;;;;;;-139.48;100.00;61774.03;5096422;28;20124;-64
2021/08/19 00:18:23;;;;;;;5.10;2.00;;;;;;;-139.48;100.00;61774.03;5095372;28;20459;-64
2021/08/19 00:21:08;;;;;;;3.00;1.90;;;;;;;-139.48;100.00;61774.03;5095413;28;20120;-64
2021/08/19 00:23:52;;;;;;;3.28;2.05;;;;;;;-139.48;100.00;61774.03;5095112;28;20046;-64
2021/08/19 00:26:36;;;;;;;2.55;2.25;;;;;;;-139.48;100.00;61774.03;5095273;28;20129;-62
2021/08/19 00:29:20;;;;;;;2.60;2.10;;;;;;;-139.48;100.00;61774.03;5080950;28;20055;-63
2021/08/19 00:32:05;;;;;;;2.20;2.00;;;;;;;-139.48;100.00;61774.03;5080865;28;20101;-63
2021/08/19 00:34:49;;;;;;;2.25;1.98;;;;;;;-139.48;100.00;61774.03;5094905;28;20042;-64
2021/08/19 00:37:33;;;;;;;5.03;2.17;;;;;;;-139.48;100.00;61774.03;5080842;28;20121;-64
2021/08/19 00:40:16;;;;;;;7.15;2.00;;;;;;;-139.48;100.00;61774.03;5096041;28;20144;-63
2021/08/19 00:43:02;;;;;;;3.70;1.85;;;;;;;-139.48;100.00;61774.03;5094895;28;20051;-61
2021/08/19 00:45:46;;;;;;;1.92;1.77;;;;;;;-139.48;100.00;61774.03;5094514;28;20047;-64
2021/08/19 00:48:31;;;;;;;2.75;2.20;;;;;;;-139.48;100.00;61774.03;5094823;28;20089;-64
2021/08/19 00:51:16;;;;;;;2.92;1.85;;;;;;;-139.48;100.00;61774.03;5080664;28;20412;-63
2021/08/19 00:54:00;;;;;;;5.00;2.17;;;;;;;-139.48;100.00;61774.03;5095731;28;20421;-63
2021/08/19 00:56:44;;;;;;;2.92;2.10;;;;;;;-139.48;100.00;61774.03;5094605;28;20058;-64
2021/08/19 00:59:39;;;;;;;3.65;2.30;;;;;;;-139.48;100.00;61774.03;5094630;28;20050;-63
2021/08/19 01:02:22;;;;;;;2.85;2.10;;;;;;;-139.48;100.00;61774.03;5094338;28;20047;-64
2021/08/19 01:05:07;;;;;;;2.53;2.30;;;;;;;-139.48;100.00;61774.03;5095203;28;20464;-64
2021/08/19 01:07:51;;;;;;;4.00;2.60;;;;;;;-139.48;100.00;61774.03;5095561;28;20405;-64
2021/08/19 01:10:35;;;;;;;3.45;2.38;;;;;;;-139.48;100.00;61774.03;5095241;28;20055;-63
2021/08/19 01:13:19;;;;;;;4.20;2.47;;;;;;;-139.48;100.00;61774.03;5094115;28;20047;-64
2021/08/19 01:16:03;;;;;;;3.92;2.70;;;;;;;-139.48;100.00;61774.03;5093978;28;20055;-64
2021/08/19 01:18:48;;;;;;;2.60;2.40;;;;;;;-139.48;100.00;61774.03;5094964;28;20515;-64
2021/08/19 01:21:32;;;;;;;5.55;2.40;;;;;;;-139.48;100.00;61774.03;5093947;28;20079;-63
2021/08/19 01:24:16;;;;;;;3.00;2.20;;;;;;;-139.48;100.00;61774.03;5093923;28;20417;-63
2021/08/19 01:27:00;;;;;;;5.13;2.63;;;;;;;-139.48;100.00;61774.03;5079660;28;20108;-64
2021/08/19 01:29:46;;;;;;;2.88;2.63;;;;;;;-139.48;100.00;61774.03;5095308;28;20097;-64
2021/08/19 01:32:33;;;;;;;4.00;2.90;;;;;;;-139.48;100.00;61774.03;5094026;28;20088;-64
2021/08/19 01:35:26;;;;;;;4.18;2.90;;;;;;;-139.48;100.00;61774.03;5094617;28;20051;-64
2021/08/19 01:38:10;;;;;;;4.50;2.97;;;;;;;-139.48;100.00;61774.03;5094535;28;20128;-64
2021/08/19 01:40:54;;;;;;;4.22;2.70;;;;;;;-139.48;100.00;61774.03;5094164;28;20051;-64
2021/08/19 01:43:39;;;;;;;5.75;2.60;;;;;;;-139.48;100.00;61774.03;5094802;28;20089;-63
2021/08/19 01:46:23;;;;;;;3.40;2.55;;;;;;;-139.48;100.00;61774.03;5094760;28;20498;-64
2021/08/19 01:49:07;;;;;;;3.35;2.90;;;;;;;-139.48;100.00;61774.03;5094450;28;20047;-64
2021/08/19 01:51:51;;;;;;;4.97;2.85;;;;;;;-139.48;100.00;61774.03;5093585;28;20100;-63
2021/08/19 01:54:35;;;;;;;2.92;2.60;;;;;;;-139.48;100.00;61774.03;5094540;28;20054;-64
2021/08/19 01:57:18;;;;;;;3.00;2.70;;;;;;;-139.48;100.00;61774.03;5093235;28;20047;-64
2021/08/19 02:00:06;;;;;;;6.15;2.63;;;;;;;-139.48;100.00;61774.03;5094194;28;20055;-63
2021/08/19 02:02:50;;;;;;;5.22;2.78;;;;;;;-139.48;100.00;61774.03;5094715;28;20468;-64
2021/08/19 02:05:36;;;;;;;4.30;2.75;;;;;;;-139.48;100.00;61774.03;5093294;28;20078;-64
2021/08/19 02:08:20;;;;;;;5.70;3.15;;;;;;;-139.48;100.00;61774.03;5093304;28;20043;-64
2021/08/19 02:11:03;;;;;;;3.03;2.60;;;;;;;-139.48;100.00;61774.03;5093005;28;20113;-64
2021/08/19 02:13:47;;;;;;;3.33;2.75;;;;;;;-139.48;100.00;61774.03;5094435;28;20082;-64
2021/08/19 02:16:31;;;;;;;3.03;2.67;;;;;;;-139.48;100.00;61774.03;5092803;28;20077;-64
2021/08/19 02:19:15;;;;;;;4.10;2.72;;;;;;;-139.48;100.00;61774.03;5093638;28;20413;-63
2021/08/19 02:21:59;;;;;;;9.10;3.22;;;;;;;-139.48;100.00;61774.03;5094155;28;20058;-63
2021/08/19 02:24:43;;;;;;;4.80;2.92;;;;;;;-139.48;100.00;61774.03;5092648;28;20417;-64
2021/08/19 02:27:29;;;;;;;8.18;3.03;;;;;;;-139.48;100.00;61774.03;5094045;28;20069;-64
2021/08/19 02:30:13;;;;;;;4.43;2.85;;;;;;;-139.48;100.00;61774.03;5092951;28;20117;-64
2021/08/19 02:32:57;;;;;;;4.00;3.00;;;;;;;-139.48;100.00;61774.03;5093953;28;20062;-65
2021/08/19 02:35:41;;;;;;;4.20;2.60;;;;;;;-139.48;100.00;61774.03;5078533;28;20116;-64
2021/08/19 02:38:25;;;;;;;6.00;3.20;;;;;;;-139.48;100.00;61774.03;5093779;28;20108;-64
2021/08/19 02:41:09;;;;;;;4.88;3.35;;;;;;;-139.48;100.00;61774.03;5093840;28;20050;-64
2021/08/19 02:43:53;;;;;;;5.15;3.22;;;;;;;-139.48;100.00;61774.03;5092619;28;20043;-64
2021/08/19 02:46:36;;;;;;;4.13;2.85;;;;;;;-139.48;100.00;61774.03;5093719;28;20133;-64
2021/08/19 02:49:21;;;;;;;4.35;3.10;;;;;;;-139.48;100.00;61774.03;5093707;28;20196;-64
2021/08/19 02:52:05;;;;;;;5.55;2.58;;;;;;;-139.48;100.00;61774.03;5092604;28;20066;-64
2021/08/19 02:54:50;;;;;;;3.70;2.85;;;;;;;-139.48;100.00;61774.03;5092415;28;20093;-60
2021/08/19 02:57:34;;;;;;;5.32;2.65;;;;;;;-139.48;100.00;61774.03;5092365;28;20094;-64
2021/08/19 03:00:18;;;;;;;3.38;2.80;;;;;;;-139.48;100.00;61774.03;5093276;28;20104;-62
2021/08/19 03:03:02;;;;;;;3.85;2.90;;;;;;;-139.48;100.00;61774.03;5093562;28;20532;-64
2021/08/19 03:05:46;;;;;;;;;;;;;;;-139.48;100.00;61774.03;5094094;28;20508;-64
2021/08/19 03:08:30;;;;;;;5.33;2.83;;;;;;;-139.48;100.00;61774.03;5093524;28;19918;-64
2021/08/19 03:11:14;;;;;;;5.72;3.03;;;;;;;-139.48;100.00;61774.03;5092419;28;20100;-65
2021/08/19 03:13:59;;;;;;;3.15;2.63;;;;;;;-139.48;100.00;61774.03;5093308;28;20134;-64
2021/08/19 03:16:43;;;;;;;5.35;3.08;;;;;;;-139.48;100.00;61774.03;5078061;28;20496;-63
2021/08/19 03:19:27;;;;;;;5.45;3.00;;;;;;;-139.48;100.00;61774.03;5093601;28;20224;-64
2021/08/19 03:22:13;;;;;;;3.20;2.80;;;;;;;-139.48;100.00;61774.03;5092316;28;20519;-64
2021/08/19 03:24:57;;;;;;;4.43;3.17;;;;;;;-139.48;100.00;61774.03;5077962;28;20512;-64
2021/08/19 03:27:42;;;;;;;4.72;2.75;;;;;;;-139.48;100.00;61774.03;5093201;28;20044;-63
2021/08/19 03:30:27;;;;;;;3.60;2.75;;;;;;;-139.48;100.00;61774.03;5094509;28;20081;-64
2021/08/19 03:33:11;;;;;;;4.25;2.85;;;;;;;-139.48;100.00;61774.03;5082074;28;20046;-64
2021/08/19 03:35:55;;;;;;;4.30;2.85;;;;;;;-139.48;100.00;61774.03;5096971;28;20128;-64
2021/08/19 03:38:40;;;;;;;4.93;3.00;;;;;;;-139.48;100.00;61774.03;5097176;28;20074;-63
2021/08/19 03:41:24;;;;;;;6.70;3.10;;;;;;;-139.48;100.00;61774.03;5096918;28;20067;-64
2021/08/19 03:44:09;;;;;;;3.47;2.92;;;;;;;-139.48;100.00;61774.03;5097089;28;20050;-64
2021/08/19 03:46:53;;;;;;;4.95;2.92;;;;;;;-139.48;100.00;61774.03;5097061;28;20397;-64
2021/08/19 03:49:37;;;;;;;6.28;2.92;;;;;;;-139.48;100.00;61774.03;5096957;28;20154;-64
2021/08/19 03:52:21;;;;;;;6.75;2.78;;;;;;;-139.48;100.00;61774.03;5096712;28;20170;-64
2021/08/19 03:55:06;;;;;;;4.43;3.00;;;;;;;-139.48;100.00;61774.03;5096870;28;20047;-64
2021/08/19 03:57:49;;;;;;;4.53;2.90;;;;;;;-139.48;100.00;61774.03;5095799;28;20129;-64
2021/08/19 04:00:33;;;;;;;6.88;3.22;;;;;;;-139.48;100.00;61774.03;5081238;28;20136;-63
2021/08/19 04:03:17;;;;;;;6.38;3.55;;;;;;;-139.48;100.00;61774.03;5095775;28;20124;-63
2021/08/19 04:06:01;;;;;;;3.15;2.70;;;;;;;-139.48;100.00;61774.03;5096632;28;20059;-63
2021/08/19 04:08:45;;;;;;;4.70;3.60;;;;;;;-139.48;100.00;61774.03;5095323;28;20046;-64
2021/08/19 04:11:29;;;;;;;3.63;2.75;;;;;;;-139.48;100.00;61774.03;5096356;28;20054;-64
2021/08/19 04:14:13;;;;;;;3.38;3.03;;;;;;;-139.48;100.00;61774.03;5096647;28;20047;-62
2021/08/19 04:16:57;;;;;;;4.63;3.15;;;;;;;-139.48;100.00;61774.03;5096123;28;20055;-64
2021/08/19 04:19:42;;;;;;;5.32;2.83;;;;;;;-139.48;100.00;61774.03;5095431;28;20054;-64
2021/08/19 04:22:26;;;;;;;6.30;3.33;;;;;;;-139.48;100.00;61774.03;5096424;28;20081;-64
2021/08/19 04:25:12;;;;;;;4.93;2.97;;;;;;;-139.48;100.00;61774.03;5095980;28;20117;-65
2021/08/19 04:27:56;;;;;;;5.45;3.40;;;;;;;-139.48;100.00;61774.03;5096042;28;20135;-64
2021/08/19 04:30:40;;;;;;;5.28;3.05;;;;;;;-139.48;100.00;61774.03;5096269;28;20096;-64
2021/08/19 04:33:28;;;;;;;3.78;3.10;;;;;;;-139.48;100.00;61774.03;5094887;28;20097;-64
2021/08/19 04:36:12;;;;;;;5.80;3.33;;;;;;;-139.48;100.00;61774.03;5095228;28;20054;-64
2021/08/19 04:38:56;;;;;;;6.53;2.88;;;;;;;-139.48;100.00;61774.03;5096006;28;20408;-64
2021/08/19 04:41:41;;;;;;;4.20;3.00;;;;;;;-139.48;100.00;61774.03;5094503;28;20086;-64
2021/08/19 04:44:25;;;;;;;5.43;3.60;;;;;;;-139.48;100.00;61774.03;5094877;28;20090;-63
2021/08/19 04:47:09;;;;;;;3.83;2.75;;;;;;;-139.48;100.00;61774.03;5095214;28;20062;-63
2021/08/19 04:49:53;;;;;;;5.50;3.38;;;;;;;-139.48;100.00;61774.03;5095885;28;20042;-64
2021/08/19 04:52:37;;;;;;;4.18;3.20;;;;;;;-139.48;100.00;61774.03;5095464;28;20119;-63
2021/08/19 04:55:21;;;;;;;;;;;;;;;-139.48;100.00;61774.03;5095014;28;20105;-62
2021/08/19 04:58:05;;;;;;;4.85;3.35;;;;;;;-139.48;100.00;61774.03;5095698;28;20276;-63
2021/08/19 05:00:49;;;;;;;4.05;3.35;;;;;;;-139.48;100.00;61774.03;5094448;28;20074;-64
2021/08/19 05:03:33;;;;;;;7.50;3.67;;;;;;;-139.48;100.00;61774.03;5094350;28;20047;-61
2021/08/19 05:06:17;;;;;;;7.15;4.22;;;;;;;-139.48;100.00;61774.03;5095310;28;20539;-63
2021/08/19 05:09:04;;;;;;;3.10;2.85;;;;;;;-139.48;100.00;61774.03;5095617;28;20046;-64
2021/08/19 05:11:47;;;;;;;4.97;3.75;;;;;;;-139.48;100.00;61774.03;5094078;28;20143;-64
2021/08/19 05:14:31;;;;;;;5.03;3.80;;;;;;;-139.48;100.00;61774.03;5093979;28;20420;-64
2021/08/19 05:17:15;;;;;;;7.00;3.28;;;;;;;-139.48;100.00;61774.03;5095232;28;20404;-63
2021/08/19 05:19:59;;;;;;;5.40;3.35;;;;;;;-139.48;100.00;61774.03;5094504;28;20098;-62
2021/08/19 05:22:43;;;;;;;4.40;3.30;;;;;;;-139.48;100.00;61774.03;5093970;28;20051;-64
2021/08/19 05:25:27;;;;;;;4.97;3.50;;;;;;;-139.48;100.00;61774.03;5094817;28;20063;-64
2021/08/19 05:28:11;;;;;;;7.40;4.15;;;;;;;-139.48;100.00;61774.03;5096442;28;20173;-63
2021/08/19 05:30:55;;;;;;;;;;;;;;;-139.48;100.00;61774.03;5094438;28;20055;-64
2021/08/19 05:33:40;;;;;;;8.55;4.00;;;;;;;-139.48;100.00;61774.03;5094120;28;20379;-64
2021/08/19 05:36:24;;;;;;;6.93;3.40;;;;;;;-139.48;100.00;61774.03;5079783;28;20089;-64
2021/08/19 05:39:08;;;;;;;5.00;3.53;;;;;;;-139.48;100.00;61774.03;5093673;28;20104;-65
2021/08/19 05:41:52;;;;;;;5.38;3.67;;;;;;;-139.48;100.00;61774.03;5093841;28;20102;-64
2021/08/19 05:44:37;;;;;;;5.25;3.88;;;;;;;-139.48;100.00;61774.03;5094513;28;20046;-65
2021/08/19 05:47:21;;;;;;;5.15;4.07;;;;;;;-139.48;100.00;61774.03;5094664;28;20121;-64
2021/08/19 05:50:10;;;;;;;8.30;4.00;;;;;;;-139.48;100.00;61774.03;5093656;28;20093;-62
2021/08/19 05:52:54;;;;;;;5.10;3.80;;;;;;;-139.48;100.00;61774.03;5093706;28;20128;-65
2021/08/19 05:55:38;;;;;;;5.90;4.32;;;;;;;-139.48;100.00;61774.03;5094276;28;20428;-64
2021/08/19 05:58:22;;;;;;;7.55;4.57;;;;;;;-139.48;100.00;61774.03;5093548;28;20472;-64
2021/08/19 06:01:05;;;;;;;5.95;4.70;;;;;;;-139.48;100.00;61774.03;5078846;28;20043;-65
2021/08/19 06:03:49;;;;;;;9.88;4.45;;;;;;;-139.48;100.00;61774.03;5093312;28;20043;-65
2021/08/19 06:06:33;;;;;;;7.25;4.75;;;;;;;-139.48;100.00;61774.03;5093123;28;20416;-64
2021/08/19 06:09:17;;;;;;;5.28;4.20;;;;;;;-139.48;100.00;61774.03;5093554;28;20453;-65
2021/08/19 06:12:01;;;;;;;6.75;3.83;;;;;;;-139.48;100.00;61774.03;5094000;28;20483;-64
2021/08/19 06:14:45;;;;;;;5.13;4.20;;;;;;;-139.48;100.00;61774.03;5093863;28;20421;-65
2021/08/19 06:17:29;;;;;;;8.35;4.63;;;;;;;-139.48;100.00;61774.03;5094119;28;20118;-63
2021/08/19 06:20:13;;;;;;;5.00;4.50;;;;;;;-139.48;100.00;61774.03;5093874;28;20469;-64
2021/08/19 06:22:57;;;;;;;7.30;4.95;;;;;;;-139.48;100.00;61774.03;5092805;28;20516;-65
2021/08/19 06:25:41;;;;;;;8.65;4.60;;;;;;;-139.48;100.00;61774.03;5078249;28;20105;-64
2021/08/19 06:28:25;;;;;;;9.55;4.70;;;;;;;-139.48;100.00;61774.03;5092919;28;20404;-64
2021/08/19 06:31:09;;;;;;;8.40;5.20;;;;;;;-139.48;100.00;61774.03;5093945;28;20468;-64
2021/08/19 06:33:53;;;;;;;8.10;5.05;;;;;;;-139.48;100.00;61774.03;5093829;28;20409;-64
2021/08/19 06:36:37;;;;;;;5.55;4.55;;;;;;;-139.48;100.00;61774.03;5093701;28;20086;-64
2021/08/19 06:39:20;;;;;;;8.02;5.40;;;;;;;-139.48;100.00;61774.03;5078514;28;20085;-64
2021/08/19 06:42:04;;;;;;;7.60;5.85;;;;;;;-139.48;100.00;61774.03;5093500;28;20047;-65
2021/08/19 06:44:48;;;;;;;10.77;5.15;;;;;;;-139.48;100.00;61774.03;5093492;28;20051;-65
2021/08/19 06:47:32;;;;;;;8.35;5.38;;;;;;;-139.48;100.00;61774.03;5092672;28;20043;-64
2021/08/19 06:50:16;;;;;;;8.63;5.35;;;;;;;-139.48;100.00;61774.03;5092409;28;20046;-64
2021/08/19 06:53:00;;;;;;;7.22;5.15;;;;;;;-139.48;100.00;61774.03;5092374;28;20047;-64
2021/08/19 06:55:44;;;;;;;10.15;5.38;;;;;;;-139.48;100.00;61774.03;5093310;28;20093;-65
2021/08/19 06:58:28;;;;;;;7.35;5.18;;;;;;;-139.48;100.00;61774.03;5093330;28;20043;-65
2021/08/19 07:01:12;;;;;;;7.25;5.20;;;;;;;-139.48;100.00;61774.03;5092470;28;20516;-64
2021/08/19 07:03:56;;;;;;;7.13;5.28;;;;;;;-139.48;100.00;61774.03;5092207;28;20117;-65
2021/08/19 07:06:40;;;;;;;7.40;4.88;;;;;;;-139.48;100.00;61774.03;5092521;28;20182;-65
2021/08/19 07:09:24;;;;;;;5.72;4.50;;;;;;;-139.48;100.00;61774.03;5077927;28;20115;-64
2021/08/19 07:12:08;;;;;;;7.47;5.30;;;;;;;-139.48;100.00;61774.03;5093234;28;20100;-64
2021/08/19 07:14:53;;;;;;;7.93;5.05;;;;;;;-139.48;100.00;61774.03;5093179;28;20451;-64
2021/08/19 07:17:36;;;;;;;7.63;4.80;;;;;;;-139.48;100.00;61774.03;5092298;28;20093;-65
2021/08/19 07:20:20;;;;;;;6.22;5.20;;;;;;;-139.48;100.00;61774.03;5092687;28;20093;-65
2021/08/19 07:23:05;;;;;;;7.95;5.25;;;;;;;-139.48;100.00;61774.03;5092371;28;20042;-64
2021/08/19 07:25:49;;;;;;;7.78;4.45;;;;;;;-139.48;100.00;61774.03;5091911;28;20133;-65
2021/08/19 07:28:33;;;;;;;6.97;5.55;;;;;;;-139.48;100.00;61774.03;5092290;28;20047;-65
2021/08/19 07:31:16;;;;;;;4.95;4.45;;;;;;;-139.48;100.00;61774.03;5092312;28;20097;-64
2021/08/19 07:34:00;;;;;;;6.53;4.72;;;;;;;-139.48;100.00;61774.03;5093199;28;20105;-64
2021/08/19 07:36:44;;;;;;;5.13;4.50;;;;;;;-139.48;100.00;61774.03;5093225;28;20051;-65
2021/08/19 07:39:28;;;;;;;7.18;4.82;;;;;;;-139.48;100.00;61774.03;5092279;28;20101;-64
2021/08/19 07:42:12;;;;;;;7.32;3.92;;;;;;;-139.48;100.00;61774.03;5092560;28;20174;-65
2021/08/19 07:44:56;;;;;;;5.43;3.85;;;;;;;-139.48;100.00;61774.03;5093332;28;20411;-64
2021/08/19 07:47:41;;;;;;;7.40;4.10;;;;;;;-139.48;100.00;61774.03;5093012;28;20047;-65
2021/08/19 07:50:25;;;;;;;5.43;4.05;;;;;;;-139.48;100.00;61774.03;5092296;28;20051;-65
2021/08/19 07:53:09;;;;;;;4.53;4.13;;;;;;;-139.48;100.00;61774.03;5093104;28;20046;-65
2021/08/19 07:55:53;;;;;;;5.93;3.90;;;;;;;-139.48;100.00;61774.03;5092751;28;20054;-64
2021/08/19 07:58:37;;;;;;;6.07;3.63;;;;;;;-139.48;100.00;61774.03;5092711;28;20500;-65
2021/08/19 08:01:22;;;;;;;10.48;4.00;;;;;;;-139.48;100.00;61774.03;5092027;28;20100;-65
2021/08/19 08:04:08;;;;;;;6.03;3.83;;;;;;;-139.48;100.00;61774.03;5092915;28;20051;-65
2021/08/19 08:06:52;;;;;;;4.28;3.55;;;;;;;-139.48;100.00;61774.03;5091896;28;20047;-65
2021/08/19 08:09:36;;;;;;;7.07;3.53;;;;;;;-139.48;100.00;61774.03;5091932;28;20074;-64
2021/08/19 08:12:19;;;;;;;5.20;3.55;;;;;;;-139.48;100.00;61774.03;5091630;28;20094;-65
2021/08/19 08:15:05;;;;;;;9.85;3.58;;;;;;;-139.48;100.00;61774.03;5091732;28;20058;-65
2021/08/19 08:17:49;;;;;;;4.95;3.38;;;;;;;-139.48;100.00;61774.03;5094849;28;20125;-64
2021/08/19 08:20:33;;;;;;;4.07;3.67;;;;;;;-139.48;100.00;61774.03;5096271;28;20051;-64
2021/08/19 08:23:19;;;;;;;5.50;3.35;;;;;;;-139.48;100.00;61774.03;5096097;28;20070;-64
2021/08/19 08:26:03;;;;;;;4.88;2.72;;;;;;;-139.48;100.00;61774.03;5095136;28;20055;-64
2021/08/19 08:28:50;;;;;;;4.95;2.92;;;;;;;-139.48;100.00;61774.03;5095289;28;20050;-65
2021/08/19 08:31:34;;;;;;;3.35;2.72;;;;;;;-139.48;100.00;61774.03;5094968;28;20054;-65
2021/08/19 08:34:18;;;;;;;3.53;2.80;;;;;;;-139.48;100.00;61774.03;5095767;28;20408;-65
2021/08/19 08:37:03;;;;;;;3.03;2.72;;;;;;;-139.48;100.00;61774.03;5096071;28;20510;-65
2021/08/19 08:39:47;;;;;;;6.00;2.65;;;;;;;-139.48;100.00;61774.03;5094813;28;20085;-65
2021/08/19 08:42:31;;;;;;;3.70;3.00;;;;;;;-139.48;100.00;61774.03;5094784;28;20079;-65
2021/08/19 08:45:16;;;;;;;3.92;2.80;;;;;;;-139.48;100.00;61774.03;5094566;28;20082;-65
2021/08/19 08:48:06;;;;;;;4.20;2.50;;;;;;;-139.48;100.00;61774.03;5095833;28;20075;-65
2021/08/19 08:50:52;;;;;;;3.72;2.58;;;;;;;-139.48;100.00;61774.03;5094802;28;20047;-65
2021/08/19 08:53:37;;;;;;;3.70;2.97;;;;;;;-139.48;100.00;61774.03;5095571;28;20066;-64
2021/08/19 08:56:21;;;;;;;4.40;2.92;;;;;;;-139.48;100.00;61774.03;5094881;28;20042;-65
2021/08/19 08:59:05;;;;;;;4.30;2.95;;;;;;;-139.48;100.00;61774.03;5094664;28;20459;-65
2021/08/19 09:01:48;;;;;;;3.05;2.67;;;;;;;-139.48;100.00;61774.03;5094672;28;20051;-65
2021/08/19 09:04:33;;;;;;;3.30;2.85;;;;;;;-139.48;100.00;61774.03;5094392;28;20097;-65
2021/08/19 09:07:17;;;;;;;4.50;2.88;;;;;;;-139.48;100.00;61774.03;5095243;28;20097;-64
2021/08/19 09:10:02;;;;;;;3.63;2.75;;;;;;;-139.48;100.00;61774.03;5095707;28;20503;-63
2021/08/19 09:12:46;;;;;;;3.33;2.47;;;;;;;-139.48;100.00;61774.03;5095301;28;20043;-65
2021/08/19 09:15:30;;;;;;;6.03;2.65;;;;;;;-139.48;100.00;61774.03;5094494;28;20096;-65
2021/08/19 09:18:28;;;;;;;4.10;2.55;;;;;;;-139.48;100.00;61774.03;5095353;28;20134;-65
2021/08/19 09:21:16;;;;;;;3.95;2.55;;;;;;;-139.48;100.00;61774.03;5095182;28;20557;-64
2021/08/19 09:24:20;;;;;;;2.85;2.42;;;;;;;-139.48;100.00;61774.03;5095044;28;20771;-64
2021/08/19 09:27:15;;;;;;;3.05;2.50;;;;;;;-139.48;100.00;61774.03;5094380;28;20181;-65
2021/08/19 09:30:02;;;;;;;3.78;2.60;;;;;;;-139.48;100.00;61774.03;5093862;28;20051;-65
2021/08/19 09:32:46;;;;;;;4.05;2.28;;;;;;;-139.48;100.00;61774.03;5094968;28;20054;-65
2021/08/19 09:35:31;;;;;;;5.43;2.78;;;;;;;-139.48;100.00;61774.03;5093534;28;20112;-65
2021/08/19 09:38:18;;;;;;;3.80;2.33;;;;;;;-139.48;100.00;61774.03;5093612;28;20105;-65
2021/08/19 09:41:05;;;;;;;4.22;2.70;;;;;;;-139.48;100.00;61774.03;5094859;28;20144;-64
2021/08/19 09:43:50;;;;;;;5.97;2.60;;;;;;;-139.48;100.00;61774.03;5094716;28;20058;-65
2021/08/19 09:46:35;;;;;;;5.00;2.65;;;;;;;-139.48;100.00;61774.03;5094563;28;20067;-65
2021/08/19 09:49:28;;;;;;;2.58;2.30;;;;;;;-139.48;100.00;61774.03;5093781;28;20050;-65
2021/08/19 09:52:12;;;;;;;5.95;2.00;;;;;;;-139.48;100.00;61774.03;5093630;28;20047;-65
2021/08/19 09:54:56;;;;;;;2.95;2.30;;;;;;;-139.48;100.00;61774.03;5094651;28;20066;-65
2021/08/19 09:57:40;;;;;;;;;;;;;;;-139.48;100.00;61774.03;5094983;28;20059;-65
2021/08/19 10:00:39;;;;;;;2.65;2.17;;;;;;;-139.48;100.00;61774.03;5093285;28;20342;-65
2021/08/19 10:03:25;;;;;;;3.13;2.30;;;;;;;-139.48;100.00;61774.03;5094382;28;20048;-65
2021/08/19 10:06:09;;;;;;;2.65;2.35;;;;;;;-139.48;100.00;61774.03;5094375;28;20474;-65
2021/08/19 10:08:53;;;;;;;;;;;;;;;-139.48;100.00;61774.03;5093858;28;20069;-64
2021/08/19 10:11:37;;;;;;;3.80;2.33;;;;;;;-139.48;100.00;61774.03;5078950;28;19919;-65
2021/08/19 10:14:23;;;;;;;4.30;2.40;;;;;;;-139.48;100.00;61774.03;5093041;28;20795;-65
2021/08/19 10:17:09;;;;;;;2.72;2.03;;;;;;;-139.48;100.00;61774.03;5094457;28;20123;-65
2021/08/19 10:19:53;;;;;;;2.55;2.33;;;;;;;-139.48;100.00;61774.03;5092862;28;20046;-68
2021/08/19 10:22:38;;;;;;;3.75;2.20;;;;;;;-139.48;100.00;61774.03;5093975;28;20124;-65
2021/08/19 10:25:25;;;;;;;2.88;2.28;;;;;;;-139.48;100.00;61774.03;5093674;28;20073;-66
2021/08/19 10:28:18;;;;;;;2.33;2.13;;;;;;;-139.48;100.00;61774.03;5093988;28;20039;-65
2021/08/19 10:31:03;;;;;;;2.30;2.10;;;;;;;-139.48;100.00;61774.03;5094005;28;20504;-65
2021/08/19 10:33:47;;;;;;;3.58;2.17;;;;;;;-139.48;100.00;61774.03;5092597;28;20512;-66
2021/08/19 10:36:47;;;;;;;3.53;2.03;;;;;;;-139.48;100.00;61774.03;5093546;28;20074;-66
2021/08/19 10:39:32;;;;;;;2.72;2.28;;;;;;;-139.48;100.00;61774.03;5093627;28;20051;-64
2021/08/19 10:42:37;;;;;;;2.30;2.10;;;;;;;-139.48;100.00;61774.03;5092594;28;20096;-64
2021/08/19 10:45:27;;;;;;;5.35;2.22;;;;;;;-139.48;100.00;61774.03;5092514;28;20100;-66
2021/08/19 10:48:11;;;;;;;2.50;1.98;;;;;;;-139.48;100.00;61774.03;5093549;28;20087;-66
2021/08/19 10:50:54;;;;;;;;;;;;;;;-139.48;100.00;61774.03;5093334;28;20046;-66
2021/08/19 10:53:39;;;;;;;2.63;2.20;;;;;;;-139.48;100.00;61774.03;5092629;28;19966;-65
2021/08/19 10:56:43;;;;;;;2.78;2.03;;;;;;;-139.48;100.00;61774.03;5092574;28;20138;-66
2021/08/19 10:59:30;;;;;;;3.95;2.20;;;;;;;-139.48;100.00;61774.03;5092636;28;20039;-65
2021/08/19 11:02:36;;;;;;;3.28;2.20;;;;;;;-139.48;100.00;61774.03;5093762;28;20055;-65
2021/08/19 11:05:20;;;;;;;3.58;2.47;;;;;;;-139.48;100.00;61774.03;5093067;28;20108;-66
2021/08/19 11:08:05;;;;;;;2.10;1.90;;;;;;;-139.48;100.00;61774.03;5093298;28;20078;-65
2021/08/19 11:10:53;;;;;;;2.33;2.08;;;;;;;-139.48;100.00;61774.03;5093248;28;20050;-66
2021/08/19 11:13:37;;;;;;;3.78;2.22;;;;;;;-139.48;100.00;61774.03;5092120;28;20132;-65
2021/08/19 11:16:22;;;;;;;3.08;2.15;;;;;;;-139.48;100.00;61774.03;5093411;28;20051;-66
2021/08/19 11:19:18;;;;;;;2.33;1.95;;;;;;;-139.48;100.00;61774.03;5093034;28;20051;-65
2021/08/19 11:22:03;;;;;;;2.08;1.90;;;;;;;-139.48;100.00;61774.03;5091968;28;20101;-65
2021/08/19 11:24:47;;;;;;;3.92;2.13;;;;;;;-139.48;100.00;61774.03;5077896;28;20516;-66
2021/08/19 11:27:31;;;;;;;2.60;2.00;;;;;;;-139.48;100.00;61774.03;5094894;28;20116;-66
2021/08/19 11:30:34;;;;;;;;;;;;;;;-139.48;100.00;61774.03;5093689;28;20101;-65
2021/08/19 11:33:23;;;;;;;4.15;2.05;;;;;;;-139.48;100.00;61774.03;5093541;28;19972;-65
2021/08/19 11:36:08;;;;;;;2.72;1.70;;;;;;;-139.48;100.00;61774.03;5093175;28;20055;-65
2021/08/19 11:38:56;;;;;;;1.95;1.75;;;;;;;-139.48;100.00;61774.03;5091934;28;20101;-65
2021/08/19 11:41:40;;;;;;;4.65;2.10;;;;;;;-139.48;100.00;61774.03;5092791;28;20190;-65
2021/08/19 11:44:25;;;;;;;1.95;1.40;;;;;;;-139.48;100.00;61774.03;5091955;28;20104;-65
2021/08/19 11:47:11;;;;;;;2.65;1.42;;;;;;;-139.48;100.00;61774.03;5092383;28;20519;-66
2021/08/19 11:49:55;;;;;;;1.30;1.20;;;;;;;-139.48;100.00;61774.03;5092089;28;20094;-66
2021/08/19 11:52:39;;;;;;;;;;;;;;;-139.48;100.00;61774.03;5096477;28;20046;-65
2021/08/19 11:55:31;;;;;;;1.50;1.38;;;;;;;-139.48;100.00;61774.03;5081355;28;19919;-66
2021/08/19 11:58:20;;;;;;;1.30;1.20;;;;;;;-139.48;100.00;61774.03;5081327;28;20089;-65
2021/08/19 12:01:08;;;;;;;1.90;1.60;;;;;;;-139.48;100.00;61774.03;5095780;28;20051;-66
2021/08/19 12:03:52;;;;;;;1.50;1.40;;;;;;;-139.48;100.00;61774.03;5081246;28;20059;-66
2021/08/19 12:06:36;;;;;;;2.00;1.73;;;;;;;-139.48;100.00;61774.03;5096400;28;20409;-65
2021/08/19 12:09:20;;;;;;;1.90;1.80;;;;;;;-139.48;100.00;61774.03;5095630;28;20042;-66
2021/08/19 12:12:05;;;;;;;1.92;1.55;;;;;;;-139.48;100.00;61774.03;5096331;28;20055;-66
2021/08/19 12:14:49;;;;;;;2.60;1.70;;;;;;;-139.48;100.00;61774.03;5095413;28;20101;-66
2021/08/19 12:17:34;;;;;;;1.63;1.52;;;;;;;-139.48;100.00;61774.03;5095408;28;20101;-66
2021/08/19 12:20:20;;;;;;;1.65;1.55;;;;;;;-139.48;100.00;61774.03;5095686;28;20148;-66
2021/08/19 12:23:20;;;;;;;2.38;1.85;;;;;;;-139.48;100.00;61774.03;5095401;28;20136;-66
2021/08/19 12:26:08;;;;;;;2.03;1.73;;;;;;;-139.48;100.00;61774.03;5080547;28;20047;-65
2021/08/19 12:28:54;;;;;;;2.35;1.50;;;;;;;-139.48;100.00;61774.03;5095350;28;20093;-65
2021/08/19 12:31:50;;;;;;;2.55;1.75;;;;;;;-139.48;100.00;61774.03;5095298;28;20078;-66
2021/08/19 12:34:55;;;;;;;1.70;1.42;;;;;;;-139.48;100.00;61774.03;5094848;28;20043;-66